sensor_id;sensor_type;location;lat;lon;timestamp;pressure;altitude;pressure_sealevel;temperature;humidity
36600;BME280;35385;55.668;37.508;2022-10-16T00:00:20;100495.94;;;5.02;98.69
36600;BME280;35385;55.668;37.508;2022-10-16T00:01:22;100510.03;;;5.02;98.56
36600;BME280;35385;55.668;37.508;2022-10-16T00:02:22;100502.22;;;4.99;99.03
36600;BME280;35385;55.668;37.508;2022-10-16T00:03:23;100498.78;;;4.97;98.89
36600;BME280;35385;55.668;37.508;2022-10-16T00:04:23;100497.00;;;4.97;99.66
36600;BME280;35385;55.668;37.508;2022-10-16T00:05:24;100503.16;;;4.98;99.53
36600;BME280;35385;55.668;37.508;2022-10-16T00:06:25;100507.66;;;4.96;99.64
36600;BME280;35385;55.668;37.508;2022-10-16T00:07:25;100505.94;;;4.95;99.57
36600;BME280;35385;55.668;37.508;2022-10-16T00:08:27;100504.13;;;4.95;99.92
36600;BME280;35385;55.668;37.508;2022-10-16T00:09:27;100506.00;;;4.93;99.40
36600;BME280;35385;55.668;37.508;2022-10-16T00:10:28;100509.44;;;4.95;99.83
36600;BME280;35385;55.668;37.508;2022-10-16T00:11:29;100512.16;;;4.94;99.47
36600;BME280;35385;55.668;37.508;2022-10-16T00:12:30;100511.28;;;4.93;99.78
36600;BME280;35385;55.668;37.508;2022-10-16T00:13:31;100507.78;;;4.93;99.82
36600;BME280;35385;55.668;37.508;2022-10-16T00:14:31;100506.06;;;4.92;99.84
36600;BME280;35385;55.668;37.508;2022-10-16T00:15:36;100509.56;;;4.92;100.00
36600;BME280;35385;55.668;37.508;2022-10-16T00:16:36;100509.56;;;4.92;99.95
36600;BME280;35385;55.668;37.508;2022-10-16T00:17:37;100511.47;;;4.90;100.00
36600;BME280;35385;55.668;37.508;2022-10-16T00:18:37;100511.47;;;4.90;99.52
36600;BME280;35385;55.668;37.508;2022-10-16T00:19:38;100508.88;;;4.89;99.92
36600;BME280;35385;55.668;37.508;2022-10-16T00:20:38;100519.47;;;4.89;100.00
36600;BME280;35385;55.668;37.508;2022-10-16T00:21:57;100513.38;;;4.87;100.00
36600;BME280;35385;55.668;37.508;2022-10-16T00:23:16;100515.97;;;4.88;99.80
36600;BME280;35385;55.668;37.508;2022-10-16T00:24:17;100517.94;;;4.83;99.92
36600;BME280;35385;55.668;37.508;2022-10-16T00:25:18;100512.59;;;4.85;100.00
36600;BME280;35385;55.668;37.508;2022-10-16T00:26:18;100515.22;;;4.85;100.00
36600;BME280;35385;55.668;37.508;2022-10-16T00:27:18;100516.16;;;4.84;100.00
36600;BME280;35385;55.668;37.508;2022-10-16T00:28:19;100513.56;;;4.82;100.00
36600;BME280;35385;55.668;37.508;2022-10-16T00:29:19;100518.06;;;4.80;100.00
36600;BME280;35385;55.668;37.508;2022-10-16T00:30:19;100518.16;;;4.79;100.00
36600;BME280;35385;55.668;37.508;2022-10-16T00:31:21;100517.22;;;4.80;100.00
36600;BME280;35385;55.668;37.508;2022-10-16T00:32:21;100511.91;;;4.80;100.00
36600;BME280;35385;55.668;37.508;2022-10-16T00:33:22;100512.91;;;4.77;100.00
36600;BME280;35385;55.668;37.508;2022-10-16T00:34:22;100515.50;;;4.79;100.00
36600;BME280;35385;55.668;37.508;2022-10-16T00:35:23;100518.22;;;4.77;100.00
36600;BME280;35385;55.668;37.508;2022-10-16T00:36:24;100514.69;;;4.77;100.00
36600;BME280;35385;55.668;37.508;2022-10-16T00:37:25;100514.81;;;4.75;100.00
36600;BME280;35385;55.668;37.508;2022-10-16T00:38:25;100511.28;;;4.75;100.00
36600;BME280;35385;55.668;37.508;2022-10-16T00:39:26;100523.59;;;4.76;100.00
36600;BME280;35385;55.668;37.508;2022-10-16T00:40:26;100520.94;;;4.76;100.00
36600;BME280;35385;55.668;37.508;2022-10-16T00:41:28;100527.16;;;4.75;100.00
36600;BME280;35385;55.668;37.508;2022-10-16T00:42:29;100527.16;;;4.75;100.00
36600;BME280;35385;55.668;37.508;2022-10-16T00:44:50;100521.22;;;4.70;100.00
36600;BME280;35385;55.668;37.508;2022-10-16T00:45:52;100523.00;;;4.69;100.00
36600;BME280;35385;55.668;37.508;2022-10-16T00:46:52;100517.72;;;4.69;100.00
36600;BME280;35385;55.668;37.508;2022-10-16T00:47:53;100519.56;;;4.67;100.00
36600;BME280;35385;55.668;37.508;2022-10-16T00:50:13;100522.22;;;4.67;100.00
36600;BME280;35385;55.668;37.508;2022-10-16T00:51:17;100522.22;;;4.67;100.00
36600;BME280;35385;55.668;37.508;2022-10-16T00:52:19;100515.13;;;4.68;100.00
36600;BME280;35385;55.668;37.508;2022-10-16T00:53:19;100516.91;;;4.67;100.00
36600;BME280;35385;55.668;37.508;2022-10-16T00:54:24;100514.34;;;4.66;100.00
36600;BME280;35385;55.668;37.508;2022-10-16T00:55:26;100524.00;;;4.67;100.00
36600;BME280;35385;55.668;37.508;2022-10-16T00:56:27;100519.63;;;4.66;100.00
36600;BME280;35385;55.668;37.508;2022-10-16T00:57:28;100529.34;;;4.65;100.00
36600;BME280;35385;55.668;37.508;2022-10-16T00:58:28;100519.75;;;4.62;100.00
36600;BME280;35385;55.668;37.508;2022-10-16T00:59:33;100531.13;;;4.65;100.00
36600;BME280;35385;55.668;37.508;2022-10-16T01:00:34;100531.19;;;4.63;100.00
36600;BME280;35385;55.668;37.508;2022-10-16T01:01:34;100525.03;;;4.62;100.00
36600;BME280;35385;55.668;37.508;2022-10-16T01:02:34;100519.69;;;4.64;100.00
36600;BME280;35385;55.668;37.508;2022-10-16T01:03:36;100534.72;;;4.63;100.00
36600;BME280;35385;55.668;37.508;2022-10-16T01:04:37;100526.84;;;4.62;100.00
36600;BME280;35385;55.668;37.508;2022-10-16T01:05:39;100528.66;;;4.61;100.00
36600;BME280;35385;55.668;37.508;2022-10-16T01:11:21;100540.16;;;4.60;100.00
36600;BME280;35385;55.668;37.508;2022-10-16T01:12:25;100537.59;;;4.59;100.00
36600;BME280;35385;55.668;37.508;2022-10-16T01:13:41;100539.38;;;4.58;100.00
36600;BME280;35385;55.668;37.508;2022-10-16T01:16:49;100529.56;;;4.60;100.00
36600;BME280;35385;55.668;37.508;2022-10-16T01:18:05;100540.22;;;4.59;100.00
36600;BME280;35385;55.668;37.508;2022-10-16T01:20:21;100539.25;;;4.61;100.00
36600;BME280;35385;55.668;37.508;2022-10-16T01:21:29;100536.59;;;4.61;100.00
36600;BME280;35385;55.668;37.508;2022-10-16T01:22:48;100541.94;;;4.60;100.00
36600;BME280;35385;55.668;37.508;2022-10-16T01:25:00;100537.53;;;4.60;100.00
36600;BME280;35385;55.668;37.508;2022-10-16T01:28:27;100538.44;;;4.59;100.00
36600;BME280;35385;55.668;37.508;2022-10-16T01:29:33;100540.16;;;4.60;100.00
36600;BME280;35385;55.668;37.508;2022-10-16T01:30:34;100534.13;;;4.57;100.00
36600;BME280;35385;55.668;37.508;2022-10-16T01:31:36;100542.88;;;4.59;100.00
36600;BME280;35385;55.668;37.508;2022-10-16T01:34:05;100545.59;;;4.57;100.00
36600;BME280;35385;55.668;37.508;2022-10-16T01:36:17;100550.00;;;4.57;100.00
36600;BME280;35385;55.668;37.508;2022-10-16T01:37:22;100549.16;;;4.56;100.00
36600;BME280;35385;55.668;37.508;2022-10-16T01:38:28;100543.94;;;4.55;100.00
36600;BME280;35385;55.668;37.508;2022-10-16T01:39:30;100545.66;;;4.56;100.00
36600;BME280;35385;55.668;37.508;2022-10-16T01:40:33;100545.66;;;4.56;100.00
36600;BME280;35385;55.668;37.508;2022-10-16T01:41:38;100550.94;;;4.56;100.00
36600;BME280;35385;55.668;37.508;2022-10-16T01:42:41;100552.72;;;4.55;100.00
36600;BME280;35385;55.668;37.508;2022-10-16T01:43:43;100550.06;;;4.55;100.00
36600;BME280;35385;55.668;37.508;2022-10-16T01:44:45;100554.44;;;4.56;100.00
36600;BME280;35385;55.668;37.508;2022-10-16T01:45:47;100546.56;;;4.55;100.00
36600;BME280;35385;55.668;37.508;2022-10-16T01:46:48;100553.66;;;4.54;100.00
36600;BME280;35385;55.668;37.508;2022-10-16T01:47:50;100554.56;;;4.53;100.00
36600;BME280;35385;55.668;37.508;2022-10-16T01:48:51;100551.25;;;4.48;100.00
36600;BME280;35385;55.668;37.508;2022-10-16T01:49:52;100546.81;;;4.49;100.00
36600;BME280;35385;55.668;37.508;2022-10-16T01:50:55;100541.59;;;4.47;100.00
36600;BME280;35385;55.668;37.508;2022-10-16T01:51:57;100554.97;;;4.44;100.00
36600;BME280;35385;55.668;37.508;2022-10-16T01:52:59;100547.97;;;4.43;100.00
36600;BME280;35385;55.668;37.508;2022-10-16T01:54:01;100548.78;;;4.45;100.00
36600;BME280;35385;55.668;37.508;2022-10-16T01:55:02;100547.00;;;4.46;100.00
36600;BME280;35385;55.668;37.508;2022-10-16T01:56:05;100555.84;;;4.45;100.00
36600;BME280;35385;55.668;37.508;2022-10-16T01:57:07;100550.63;;;4.43;100.00
36600;BME280;35385;55.668;37.508;2022-10-16T01:58:08;100552.34;;;4.44;100.00
36600;BME280;35385;55.668;37.508;2022-10-16T01:59:12;100547.03;;;4.44;100.00
36600;BME280;35385;55.668;37.508;2022-10-16T02:00:14;100548.78;;;4.45;100.00
36600;BME280;35385;55.668;37.508;2022-10-16T02:01:16;100551.41;;;4.45;100.00
36600;BME280;35385;55.668;37.508;2022-10-16T02:02:19;100555.78;;;4.46;100.00
36600;BME280;35385;55.668;37.508;2022-10-16T02:03:20;100552.41;;;4.43;100.00
36600;BME280;35385;55.668;37.508;2022-10-16T02:04:34;100553.19;;;4.45;100.00
36600;BME280;35385;55.668;37.508;2022-10-16T02:05:45;100553.25;;;4.43;100.00
36600;BME280;35385;55.668;37.508;2022-10-16T02:06:46;100559.34;;;4.45;100.00
36600;BME280;35385;55.668;37.508;2022-10-16T02:07:47;100557.56;;;4.46;100.00
36600;BME280;35385;55.668;37.508;2022-10-16T02:08:47;100558.63;;;4.42;100.00
36600;BME280;35385;55.668;37.508;2022-10-16T02:09:47;100556.03;;;4.40;100.00
36600;BME280;35385;55.668;37.508;2022-10-16T02:10:48;100558.75;;;4.39;100.00
36600;BME280;35385;55.668;37.508;2022-10-16T02:11:48;100554.19;;;4.42;100.00
36600;BME280;35385;55.668;37.508;2022-10-16T02:12:56;100555.91;;;4.43;100.00
36600;BME280;35385;55.668;37.508;2022-10-16T02:14:00;100554.19;;;4.42;100.00
36600;BME280;35385;55.668;37.508;2022-10-16T02:15:02;100555.09;;;4.41;100.00
36600;BME280;35385;55.668;37.508;2022-10-16T02:16:03;100550.75;;;4.40;100.00
36600;BME280;35385;55.668;37.508;2022-10-16T02:17:09;100550.81;;;4.39;100.00
36600;BME280;35385;55.668;37.508;2022-10-16T02:18:10;100547.25;;;4.40;100.00
36600;BME280;35385;55.668;37.508;2022-10-16T02:19:12;100554.19;;;4.42;100.00
36600;BME280;35385;55.668;37.508;2022-10-16T02:20:12;100550.63;;;4.43;100.00
36600;BME280;35385;55.668;37.508;2022-10-16T02:21:18;100547.00;;;4.46;100.00
36600;BME280;35385;55.668;37.508;2022-10-16T02:24:35;100553.13;;;4.46;100.00
36600;BME280;35385;55.668;37.508;2022-10-16T02:25:40;100551.25;;;4.48;100.00
36600;BME280;35385;55.668;37.508;2022-10-16T02:27:49;100557.34;;;4.50;100.00
36600;BME280;35385;55.668;37.508;2022-10-16T02:28:53;100552.19;;;4.47;100.00
36600;BME280;35385;55.668;37.508;2022-10-16T02:29:58;100556.72;;;4.45;100.00
36600;BME280;35385;55.668;37.508;2022-10-16T02:31:00;100556.84;;;4.42;100.00
36600;BME280;35385;55.668;37.508;2022-10-16T02:32:03;100556.78;;;4.44;100.00
36600;BME280;35385;55.668;37.508;2022-10-16T02:33:05;100557.69;;;4.43;100.00
36600;BME280;35385;55.668;37.508;2022-10-16T02:34:07;100563.91;;;4.42;100.00
36600;BME280;35385;55.668;37.508;2022-10-16T02:35:08;100554.19;;;4.42;100.00
36600;BME280;35385;55.668;37.508;2022-10-16T02:36:10;100556.91;;;4.41;100.00
36600;BME280;35385;55.668;37.508;2022-10-16T02:37:10;100557.81;;;4.40;100.00
36600;BME280;35385;55.668;37.508;2022-10-16T02:38:11;100558.69;;;4.40;100.00
36600;BME280;35385;55.668;37.508;2022-10-16T02:39:12;100564.78;;;4.42;100.00
36600;BME280;35385;55.668;37.508;2022-10-16T02:40:14;100561.38;;;4.39;100.00
36600;BME280;35385;55.668;37.508;2022-10-16T02:41:15;100565.75;;;4.40;100.00
36600;BME280;35385;55.668;37.508;2022-10-16T02:42:17;100558.69;;;4.40;100.00
36600;BME280;35385;55.668;37.508;2022-10-16T02:43:18;100565.69;;;4.41;100.00
36600;BME280;35385;55.668;37.508;2022-10-16T02:44:18;100562.13;;;4.42;100.00
36600;BME280;35385;55.668;37.508;2022-10-16T02:45:18;100559.47;;;4.42;100.00
36600;BME280;35385;55.668;37.508;2022-10-16T02:46:19;100562.13;;;4.42;100.00
36600;BME280;35385;55.668;37.508;2022-10-16T02:47:19;100564.03;;;4.39;100.00
36600;BME280;35385;55.668;37.508;2022-10-16T02:48:20;100564.09;;;4.37;100.00
36600;BME280;35385;55.668;37.508;2022-10-16T02:49:20;100563.22;;;4.37;100.00
36600;BME280;35385;55.668;37.508;2022-10-16T02:50:20;100566.88;;;4.34;100.00
36600;BME280;35385;55.668;37.508;2022-10-16T02:51:21;100564.38;;;4.31;100.00
36600;BME280;35385;55.668;37.508;2022-10-16T02:52:21;100567.94;;;4.30;100.00
36600;BME280;35385;55.668;37.508;2022-10-16T02:53:22;100572.38;;;4.30;100.00
36600;BME280;35385;55.668;37.508;2022-10-16T02:54:22;100567.16;;;4.28;100.00
36600;BME280;35385;55.668;37.508;2022-10-16T02:55:22;100569.78;;;4.28;100.00
36600;BME280;35385;55.668;37.508;2022-10-16T02:56:23;100567.22;;;4.26;100.00
36600;BME280;35385;55.668;37.508;2022-10-16T02:57:23;100572.50;;;4.26;100.00
36600;BME280;35385;55.668;37.508;2022-10-16T02:58:24;100564.50;;;4.28;100.00
36600;BME280;35385;55.668;37.508;2022-10-16T02:59:24;100571.50;;;4.29;100.00
36600;BME280;35385;55.668;37.508;2022-10-16T03:00:24;100571.50;;;4.29;100.00
36600;BME280;35385;55.668;37.508;2022-10-16T03:01:25;100576.00;;;4.27;100.00
36600;BME280;35385;55.668;37.508;2022-10-16T03:02:25;100567.22;;;4.26;100.00
36600;BME280;35385;55.668;37.508;2022-10-16T03:03:26;100573.41;;;4.25;100.00
36600;BME280;35385;55.668;37.508;2022-10-16T03:04:26;100568.19;;;4.24;100.00
36600;BME280;35385;55.668;37.508;2022-10-16T03:05:26;100566.47;;;4.23;100.00
36600;BME280;35385;55.668;37.508;2022-10-16T03:06:27;100576.25;;;4.21;100.00
36600;BME280;35385;55.668;37.508;2022-10-16T03:07:27;100577.31;;;4.17;100.00
36600;BME280;35385;55.668;37.508;2022-10-16T03:08:27;100569.38;;;4.17;100.00
36600;BME280;35385;55.668;37.508;2022-10-16T03:09:28;100575.38;;;4.20;100.00
36600;BME280;35385;55.668;37.508;2022-10-16T03:10:28;100581.59;;;4.19;100.00
36600;BME280;35385;55.668;37.508;2022-10-16T03:11:28;100575.44;;;4.19;100.00
36600;BME280;35385;55.668;37.508;2022-10-16T03:12:29;100575.53;;;4.17;100.00
36600;BME280;35385;55.668;37.508;2022-10-16T03:13:29;100575.44;;;4.19;100.00
36600;BME280;35385;55.668;37.508;2022-10-16T03:14:29;100579.06;;;4.18;100.00
36600;BME280;35385;55.668;37.508;2022-10-16T03:15:30;100578.09;;;4.19;100.00
36600;BME280;35385;55.668;37.508;2022-10-16T03:16:30;100581.59;;;4.19;100.00
36600;BME280;35385;55.668;37.508;2022-10-16T03:17:31;100576.47;;;4.16;100.00
36600;BME280;35385;55.668;37.508;2022-10-16T03:18:32;100581.75;;;4.16;100.00
36600;BME280;35385;55.668;37.508;2022-10-16T03:19:32;100576.47;;;4.16;100.00
36600;BME280;35385;55.668;37.508;2022-10-16T03:20:32;100580.84;;;4.17;100.00
36600;BME280;35385;55.668;37.508;2022-10-16T03:21:33;100584.34;;;4.18;100.00
36600;BME280;35385;55.668;37.508;2022-10-16T03:22:33;100587.81;;;4.18;100.00
36600;BME280;35385;55.668;37.508;2022-10-16T03:23:34;100587.97;;;4.15;100.00
36600;BME280;35385;55.668;37.508;2022-10-16T03:24:34;100586.19;;;4.16;100.00
36600;BME280;35385;55.668;37.508;2022-10-16T03:25:34;100575.66;;;4.14;100.00
36600;BME280;35385;55.668;37.508;2022-10-16T03:26:35;100584.56;;;4.12;100.00
36600;BME280;35385;55.668;37.508;2022-10-16T03:27:35;100587.34;;;4.09;100.00
36600;BME280;35385;55.668;37.508;2022-10-16T03:28:36;100582.19;;;4.06;100.00
36600;BME280;35385;55.668;37.508;2022-10-16T03:29:36;100586.59;;;4.05;100.00
36600;BME280;35385;55.668;37.508;2022-10-16T03:30:37;100590.09;;;4.06;100.00
36600;BME280;35385;55.668;37.508;2022-10-16T03:31:39;100590.25;;;4.03;100.00
36600;BME280;35385;55.668;37.508;2022-10-16T03:32:40;100587.66;;;4.01;100.00
36600;BME280;35385;55.668;37.508;2022-10-16T03:33:40;100580.66;;;4.00;100.00
36600;BME280;35385;55.668;37.508;2022-10-16T03:34:40;100588.59;;;4.00;100.00
36600;BME280;35385;55.668;37.508;2022-10-16T03:35:41;100588.53;;;4.02;100.00
36600;BME280;35385;55.668;37.508;2022-10-16T03:36:41;100593.66;;;4.05;100.00
36600;BME280;35385;55.668;37.508;2022-10-16T03:37:42;100596.31;;;4.05;100.00
36600;BME280;35385;55.668;37.508;2022-10-16T03:38:42;100591.97;;;4.04;100.00
36600;BME280;35385;55.668;37.508;2022-10-16T03:39:42;100572.22;;;3.90;100.00
36600;BME280;35385;55.668;37.508;2022-10-16T03:40:43;100593.81;;;4.02;100.00
36600;BME280;35385;55.668;37.508;2022-10-16T03:41:43;100600.94;;;4.00;100.00
36600;BME280;35385;55.668;37.508;2022-10-16T03:42:43;100601.06;;;3.97;100.00
36600;BME280;35385;55.668;37.508;2022-10-16T03:43:44;100594.91;;;3.96;100.00
36600;BME280;35385;55.668;37.508;2022-10-16T03:44:44;100602.91;;;3.95;100.00
36600;BME280;35385;55.668;37.508;2022-10-16T03:45:44;100601.19;;;3.94;100.00
36600;BME280;35385;55.668;37.508;2022-10-16T03:46:45;100602.91;;;3.95;100.00
36600;BME280;35385;55.668;37.508;2022-10-16T03:47:45;100603.78;;;3.95;100.00
36600;BME280;35385;55.668;37.508;2022-10-16T03:48:45;100593.06;;;3.98;100.00
36600;BME280;35385;55.668;37.508;2022-10-16T03:49:46;100595.78;;;3.97;100.00
36600;BME280;35385;55.668;37.508;2022-10-16T03:50:46;100595.84;;;3.95;100.00
36600;BME280;35385;55.668;37.508;2022-10-16T03:51:48;100591.25;;;4.00;100.00
36600;BME280;35385;55.668;37.508;2022-10-16T03:52:48;100601.59;;;4.05;100.00
36600;BME280;35385;55.668;37.508;2022-10-16T03:53:49;100588.31;;;4.06;100.00
36600;BME280;35385;55.668;37.508;2022-10-16T03:54:49;100593.59;;;4.06;100.00
36600;BME280;35385;55.668;37.508;2022-10-16T03:55:49;100595.41;;;4.06;100.00
36600;BME280;35385;55.668;37.508;2022-10-16T03:56:50;100600.84;;;4.03;100.00
36600;BME280;35385;55.668;37.508;2022-10-16T03:57:50;100602.69;;;4.01;100.00
36600;BME280;35385;55.668;37.508;2022-10-16T03:58:51;100594.69;;;4.02;100.00
36600;BME280;35385;55.668;37.508;2022-10-16T03:59:51;100590.31;;;4.01;100.00
36600;BME280;35385;55.668;37.508;2022-10-16T04:00:51;100601.81;;;4.00;100.00
36600;BME280;35385;55.668;37.508;2022-10-16T04:01:52;100596.53;;;4.00;100.00
36600;BME280;35385;55.668;37.508;2022-10-16T04:02:52;100604.50;;;3.99;100.00
36600;BME280;35385;55.668;37.508;2022-10-16T04:03:53;100598.44;;;3.97;100.00
36600;BME280;35385;55.668;37.508;2022-10-16T04:04:53;100598.47;;;3.95;100.00
36600;BME280;35385;55.668;37.508;2022-10-16T04:05:53;100599.34;;;3.96;100.00
36600;BME280;35385;55.668;37.508;2022-10-16T04:06:54;100600.25;;;3.95;100.00
36600;BME280;35385;55.668;37.508;2022-10-16T04:07:54;100597.63;;;3.95;100.00
36600;BME280;35385;55.668;37.508;2022-10-16T04:08:55;100603.84;;;3.94;100.00
36600;BME280;35385;55.668;37.508;2022-10-16T04:09:56;100603.78;;;3.95;100.00
36600;BME280;35385;55.668;37.508;2022-10-16T04:10:58;100597.50;;;3.98;100.00
36600;BME280;35385;55.668;37.508;2022-10-16T04:11:59;100601.94;;;3.97;100.00
36600;BME280;35385;55.668;37.508;2022-10-16T04:12:59;100597.75;;;3.91;100.00
36600;BME280;35385;55.668;37.508;2022-10-16T04:13:59;100603.09;;;3.90;100.00
36600;BME280;35385;55.668;37.508;2022-10-16T04:15:00;100599.63;;;3.89;100.00
36600;BME280;35385;55.668;37.508;2022-10-16T04:16:00;100594.44;;;3.86;100.00
36600;BME280;35385;55.668;37.508;2022-10-16T04:17:01;100603.28;;;3.85;100.00
36600;BME280;35385;55.668;37.508;2022-10-16T04:18:01;100600.72;;;3.84;100.00
36600;BME280;35385;55.668;37.508;2022-10-16T04:19:01;100598.94;;;3.84;100.00
36600;BME280;35385;55.668;37.508;2022-10-16T04:20:02;100598.13;;;3.82;100.00
36600;BME280;35385;55.668;37.508;2022-10-16T04:21:04;100600.75;;;3.82;100.00
36600;BME280;35385;55.668;37.508;2022-10-16T04:22:04;100603.41;;;3.82;100.00
36600;BME280;35385;55.668;37.508;2022-10-16T04:23:05;100597.25;;;3.82;100.00
36600;BME280;35385;55.668;37.508;2022-10-16T04:24:05;100604.34;;;3.81;100.00
36600;BME280;35385;55.668;37.508;2022-10-16T04:25:06;100597.38;;;3.79;100.00
36600;BME280;35385;55.668;37.508;2022-10-16T04:26:06;100599.16;;;3.78;100.00
36600;BME280;35385;55.668;37.508;2022-10-16T04:27:06;100601.00;;;3.76;100.00
36600;BME280;35385;55.668;37.508;2022-10-16T04:28:07;100595.66;;;3.78;100.00
36600;BME280;35385;55.668;37.508;2022-10-16T04:29:07;100600.88;;;3.79;100.00
36600;BME280;35385;55.668;37.508;2022-10-16T04:30:07;100598.25;;;3.79;100.00
36600;BME280;35385;55.668;37.508;2022-10-16T04:31:08;100602.72;;;3.77;100.00
36600;BME280;35385;55.668;37.508;2022-10-16T04:32:09;100601.00;;;3.76;100.00
36600;BME280;35385;55.668;37.508;2022-10-16T04:33:09;100605.38;;;3.77;100.00
36600;BME280;35385;55.668;37.508;2022-10-16T04:34:10;100614.09;;;3.79;100.00
36600;BME280;35385;55.668;37.508;2022-10-16T04:35:10;100600.88;;;3.79;100.00
36600;BME280;35385;55.668;37.508;2022-10-16T04:36:10;100613.22;;;3.79;100.00
36600;BME280;35385;55.668;37.508;2022-10-16T04:37:11;100609.72;;;3.78;100.00
36600;BME280;35385;55.668;37.508;2022-10-16T04:38:11;100608.81;;;3.79;100.00
36600;BME280;35385;55.668;37.508;2022-10-16T04:39:12;100574.47;;;3.58;100.00
36600;BME280;35385;55.668;37.508;2022-10-16T04:40:12;100611.34;;;3.82;100.00
36600;BME280;35385;55.668;37.508;2022-10-16T04:41:13;100616.56;;;3.84;100.00
36600;BME280;35385;55.668;37.508;2022-10-16T04:42:13;100617.44;;;3.84;100.00
36600;BME280;35385;55.668;37.508;2022-10-16T04:43:14;100611.28;;;3.84;100.00
36600;BME280;35385;55.668;37.508;2022-10-16T04:44:14;100610.31;;;3.86;100.00
36600;BME280;35385;55.668;37.508;2022-10-16T04:45:14;100615.59;;;3.86;100.00
36600;BME280;35385;55.668;37.508;2022-10-16T04:46:15;100615.66;;;3.85;100.00
36600;BME280;35385;55.668;37.508;2022-10-16T04:47:15;100612.03;;;3.87;100.00
36600;BME280;35385;55.668;37.508;2022-10-16T04:48:16;100614.78;;;3.84;100.00
36600;BME280;35385;55.668;37.508;2022-10-16T04:49:16;100610.41;;;3.83;100.00
36600;BME280;35385;55.668;37.508;2022-10-16T04:50:16;100624.56;;;3.82;100.00
36600;BME280;35385;55.668;37.508;2022-10-16T04:51:17;100622.72;;;3.84;100.00
36600;BME280;35385;55.668;37.508;2022-10-16T04:52:18;100613.88;;;3.85;100.00
36600;BME280;35385;55.668;37.508;2022-10-16T04:53:19;100615.47;;;3.89;100.00
36600;BME280;35385;55.668;37.508;2022-10-16T04:54:19;100613.75;;;3.88;100.00
36600;BME280;35385;55.668;37.508;2022-10-16T04:55:20;100616.56;;;3.84;100.00
36600;BME280;35385;55.668;37.508;2022-10-16T04:56:20;100619.16;;;3.85;100.00
36600;BME280;35385;55.668;37.508;2022-10-16T04:57:21;100615.59;;;3.86;100.00
36600;BME280;35385;55.668;37.508;2022-10-16T04:58:21;100627.75;;;3.90;100.00
36600;BME280;35385;55.668;37.508;2022-10-16T04:59:22;100621.47;;;3.93;100.00
36600;BME280;35385;55.668;37.508;2022-10-16T05:00:22;100616.13;;;3.95;100.00
36600;BME280;35385;55.668;37.508;2022-10-16T05:01:23;100616.94;;;3.97;100.00
36600;BME280;35385;55.668;37.508;2022-10-16T05:02:23;100618.78;;;3.95;100.00
36600;BME280;35385;55.668;37.508;2022-10-16T05:03:23;100617.06;;;3.94;100.00
36600;BME280;35385;55.668;37.508;2022-10-16T05:04:24;100625.91;;;3.92;100.00
36600;BME280;35385;55.668;37.508;2022-10-16T05:05:24;100628.53;;;3.92;100.00
36600;BME280;35385;55.668;37.508;2022-10-16T05:06:24;100623.19;;;3.94;100.00
36600;BME280;35385;55.668;37.508;2022-10-16T05:07:25;100623.94;;;3.98;100.00
36600;BME280;35385;55.668;37.508;2022-10-16T05:08:25;100624.63;;;4.03;100.00
36600;BME280;35385;55.668;37.508;2022-10-16T05:09:26;100621.97;;;4.03;100.00
36600;BME280;35385;55.668;37.508;2022-10-16T05:10:26;100620.19;;;4.03;100.00
36600;BME280;35385;55.668;37.508;2022-10-16T05:11:26;100622.84;;;4.03;100.00
36600;BME280;35385;55.668;37.508;2022-10-16T05:12:27;100620.25;;;4.02;100.00
36600;BME280;35385;55.668;37.508;2022-10-16T05:13:27;100622.91;;;4.02;100.00
36600;BME280;35385;55.668;37.508;2022-10-16T05:14:27;100618.59;;;3.99;100.00
36600;BME280;35385;55.668;37.508;2022-10-16T05:15:28;100618.41;;;4.04;100.00
36600;BME280;35385;55.668;37.508;2022-10-16T05:16:28;100626.16;;;4.08;100.00
36600;BME280;35385;55.668;37.508;2022-10-16T05:17:30;100624.53;;;4.04;100.00
36600;BME280;35385;55.668;37.508;2022-10-16T05:18:30;100623.56;;;4.07;100.00
36600;BME280;35385;55.668;37.508;2022-10-16T05:19:31;100628.78;;;4.08;100.00
36600;BME280;35385;55.668;37.508;2022-10-16T05:20:31;100627.88;;;4.09;100.00
36600;BME280;35385;55.668;37.508;2022-10-16T05:21:31;100634.75;;;4.13;100.00
36600;BME280;35385;55.668;37.508;2022-10-16T05:22:32;100628.63;;;4.13;100.00
36600;BME280;35385;55.668;37.508;2022-10-16T05:23:32;100627.06;;;4.07;100.00
36600;BME280;35385;55.668;37.508;2022-10-16T05:24:35;100632.28;;;4.09;100.00
36600;BME280;35385;55.668;37.508;2022-10-16T05:25:36;100628.63;;;4.13;100.00
36600;BME280;35385;55.668;37.508;2022-10-16T05:26:37;100633.63;;;4.19;100.00
36600;BME280;35385;55.668;37.508;2022-10-16T05:27:37;100633.63;;;4.19;100.00
36600;BME280;35385;55.668;37.508;2022-10-16T05:28:37;100630.94;;;4.20;100.00
36600;BME280;35385;55.668;37.508;2022-10-16T05:29:38;100637.06;;;4.21;100.00
36600;BME280;35385;55.668;37.508;2022-10-16T05:30:38;100638.81;;;4.22;100.00
36600;BME280;35385;55.668;37.508;2022-10-16T05:31:39;100631.84;;;4.19;100.00
36600;BME280;35385;55.668;37.508;2022-10-16T05:32:39;100635.22;;;4.23;100.00
36600;BME280;35385;55.668;37.508;2022-10-16T05:33:39;100629.69;;;4.29;100.00
36600;BME280;35385;55.668;37.508;2022-10-16T05:34:40;100625.34;;;4.28;100.00
36600;BME280;35385;55.668;37.508;2022-10-16T05:35:40;100632.22;;;4.32;100.00
36600;BME280;35385;55.668;37.508;2022-10-16T05:36:41;100628.72;;;4.32;100.00